Time;durP1;ratioP1;P1;durP2;ratioP2;P2;SDS_P1;SDS_P2;PMS_P1;PMS_P2;Temp;Humidity;BMP_temperature;BMP_pressure;BME280_temperature;BME280_humidity;BME280_pressure;Samples;Min_cycle;Max_cycle;Signal;HPM_P1;HPM_P2
2022/05/23 00:01:49;;;;;;;10.90;7.40;;;;;;;;;;4926403;28;20241;-42
2022/05/23 00:04:16;;;;;;;12.23;8.27;;;;;;;;;;4928589;28;21190;-41
2022/05/23 00:06:42;;;;;;;12.10;8.13;;;;;;;;;;4936181;28;20425;-41
2022/05/23 00:09:09;;;;;;;10.57;8.07;;;;;;;;;;4925531;28;20179;-42
2022/05/23 00:11:35;;;;;;;9.70;7.70;;;;;;;;;;4928523;28;20586;-42
2022/05/23 00:14:01;;;;;;;10.77;7.73;;;;;;;;;;4934972;28;20520;-42
2022/05/23 00:16:29;;;;;;;9.73;7.63;;;;;;;;;;4928089;28;20479;-42
2022/05/23 00:18:55;;;;;;;10.73;8.17;;;;;;;;;;4929803;28;20179;-41
2022/05/23 00:21:21;;;;;;;14.37;8.07;;;;;;;;;;4932986;28;20638;-42
2022/05/23 00:23:48;;;;;;;12.70;9.00;;;;;;;;;;4934008;28;20374;-41
2022/05/23 00:26:16;;;;;;;11.20;7.53;;;;;;;;;;4929377;28;20501;-42
2022/05/23 00:28:42;;;;;;;9.57;8.00;;;;;;;;;;4933571;28;20540;-42
2022/05/23 00:31:08;;;;;;;9.90;8.03;;;;;;;;;;4932599;28;20996;-42
2022/05/23 00:36:19;;;;;;;11.77;8.10;;;;;;;;;;4931076;28;21095;-42
2022/05/23 00:38:46;;;;;;;10.97;8.70;;;;;;;;;;4929255;28;20284;-42
2022/05/23 00:44:06;;;;;;;11.07;8.23;;;;;;;;;;4934309;28;20579;-42
2022/05/23 00:46:32;;;;;;;12.70;9.43;;;;;;;;;;4928990;28;20182;-42
2022/05/23 00:49:00;;;;;;;11.83;9.27;;;;;;;;;;4931862;28;20191;-42
2022/05/23 00:51:27;;;;;;;13.30;9.50;;;;;;;;;;4932456;28;20193;-42
2022/05/23 00:53:55;;;;;;;12.00;9.67;;;;;;;;;;4930169;28;20197;-42
2022/05/23 00:56:24;;;;;;;10.73;9.53;;;;;;;;;;4932469;28;20556;-42
2022/05/23 00:58:52;;;;;;;19.07;11.50;;;;;;;;;;4931239;28;20284;-42
2022/05/23 01:01:29;;;;;;;16.23;10.37;;;;;;;;;;4928441;28;20300;-42
2022/05/23 01:03:55;;;;;;;15.50;10.53;;;;;;;;;;4929069;28;20187;-42
2022/05/23 01:06:21;;;;;;;13.07;10.73;;;;;;;;;;4933622;28;20940;-41
2022/05/23 01:08:48;;;;;;;18.17;10.63;;;;;;;;;;4932606;28;20205;-42
2022/05/23 01:11:14;;;;;;;15.13;9.03;;;;;;;;;;4930551;28;20918;-42
2022/05/23 01:13:40;;;;;;;13.30;9.27;;;;;;;;;;4926601;28;20234;-42
2022/05/23 01:16:07;;;;;;;14.13;7.63;;;;;;;;;;4932404;28;20185;-42
2022/05/23 01:18:33;;;;;;;15.27;7.93;;;;;;;;;;4932486;28;20383;-42
2022/05/23 01:21:04;;;;;;;9.10;7.10;;;;;;;;;;4931149;28;20474;-42
2022/05/23 01:23:36;;;;;;;9.63;6.50;;;;;;;;;;4931140;28;21042;-42
2022/05/23 01:26:03;;;;;;;7.63;6.00;;;;;;;;;;4927100;28;20658;-42
2022/05/23 01:28:33;;;;;;;9.23;5.83;;;;;;;;;;4927878;28;20483;-41
2022/05/23 01:30:59;;;;;;;11.13;5.43;;;;;;;;;;4931401;28;20697;-41
2022/05/23 01:33:26;;;;;;;4.80;4.40;;;;;;;;;;4930836;28;20314;-42
2022/05/23 01:35:52;;;;;;;10.07;4.83;;;;;;;;;;4927022;28;20191;-42
2022/05/23 01:38:18;;;;;;;7.53;4.10;;;;;;;;;;4931101;28;20672;-42
2022/05/23 01:40:44;;;;;;;6.47;4.07;;;;;;;;;;4929360;28;20182;-42
2022/05/23 01:43:11;;;;;;;6.47;4.07;;;;;;;;;;4927577;28;20261;-42
2022/05/23 01:45:38;;;;;;;6.33;3.47;;;;;;;;;;4930556;28;20207;-41
2022/05/23 01:48:06;;;;;;;10.87;4.70;;;;;;;;;;4933823;28;20175;-41
2022/05/23 01:50:32;;;;;;;4.80;3.10;;;;;;;;;;4937385;28;20209;-42
2022/05/23 01:52:59;;;;;;;6.30;4.20;;;;;;;;;;4935385;28;20186;-42
2022/05/23 01:55:25;;;;;;;7.20;3.87;;;;;;;;;;4939825;28;20187;-41
2022/05/23 01:57:51;;;;;;;5.87;3.60;;;;;;;;;;4930634;28;20618;-42
2022/05/23 02:03:03;;;;;;;5.03;3.57;;;;;;;;;;4938330;28;20241;-42
2022/05/23 02:05:30;;;;;;;4.97;3.63;;;;;;;;;;4932144;28;20638;-40
2022/05/23 02:07:56;;;;;;;5.17;3.50;;;;;;;;;;4925488;28;20614;-41
2022/05/23 02:10:22;;;;;;;6.93;3.50;;;;;;;;;;4934175;28;20186;-41
2022/05/23 02:12:48;;;;;;;6.17;3.30;;;;;;;;;;4939311;28;20383;-46
2022/05/23 02:15:15;;;;;;;5.47;3.70;;;;;;;;;;4932882;28;20355;-42
2022/05/23 02:17:41;;;;;;;5.93;3.57;;;;;;;;;;4937222;28;20214;-42
2022/05/23 02:20:08;;;;;;;7.37;3.70;;;;;;;;;;4933953;28;20187;-42
2022/05/23 02:22:34;;;;;;;6.40;3.43;;;;;;;;;;4931766;28;20649;-42
2022/05/23 02:25:01;;;;;;;7.50;3.40;;;;;;;;;;4937641;28;20650;-42
2022/05/23 02:27:28;;;;;;;6.73;3.73;;;;;;;;;;4935962;28;20252;-40
2022/05/23 02:29:54;;;;;;;7.93;3.37;;;;;;;;;;4933796;28;20642;-42
2022/05/23 02:32:20;;;;;;;6.57;3.23;;;;;;;;;;4934286;28;20182;-42
2022/05/23 02:34:46;;;;;;;9.40;3.53;;;;;;;;;;4936208;28;20624;-41
2022/05/23 02:37:12;;;;;;;5.00;3.37;;;;;;;;;;4929278;28;20178;-42
2022/05/23 02:39:38;;;;;;;6.97;3.73;;;;;;;;;;4934466;28;20521;-42
2022/05/23 02:42:05;;;;;;;6.60;3.13;;;;;;;;;;4931663;28;20463;-41
2022/05/23 02:44:31;;;;;;;5.63;3.27;;;;;;;;;;4935752;28;20187;-42
2022/05/23 02:46:57;;;;;;;8.07;3.90;;;;;;;;;;4934137;28;20614;-41
2022/05/23 02:49:23;;;;;;;6.07;3.47;;;;;;;;;;4931850;28;20179;-42
2022/05/23 02:51:49;;;;;;;7.40;3.57;;;;;;;;;;4936826;28;20661;-42
2022/05/23 02:54:15;;;;;;;8.20;4.07;;;;;;;;;;4933950;28;20617;-42
2022/05/23 02:56:41;;;;;;;8.63;5.17;;;;;;;;;;4935460;28;20593;-40
2022/05/23 02:59:07;;;;;;;7.23;4.40;;;;;;;;;;4933331;28;20313;-42
2022/05/23 03:03:01;;;;;;;9.07;4.80;;;;;;;;;;4929436;28;21000;-40
2022/05/23 03:04:19;;;;;;;7.33;5.50;;;;;;;;;;4933054;28;20191;-42
2022/05/23 03:06:45;;;;;;;6.83;5.07;;;;;;;;;;4930574;28;20241;-41
2022/05/23 03:09:12;;;;;;;8.43;5.40;;;;;;;;;;4932789;28;21065;-41
2022/05/23 03:11:38;;;;;;;11.57;6.27;;;;;;;;;;4931476;28;20303;-40
2022/05/23 03:14:04;;;;;;;11.60;5.33;;;;;;;;;;4932392;28;20410;-41
2022/05/23 03:16:30;;;;;;;10.40;5.97;;;;;;;;;;4934772;28;20174;-41
2022/05/23 03:18:56;;;;;;;10.23;6.33;;;;;;;;;;4931658;28;20186;-44
2022/05/23 03:27:01;;;;;;;15.13;6.97;;;;;;;;;;4943149;28;20245;-42
2022/05/23 03:29:28;;;;;;;14.10;7.83;;;;;;;;;;4937817;28;20178;-42
2022/05/23 03:31:54;;;;;;;10.70;6.90;;;;;;;;;;4935899;28;20665;-41
2022/05/23 03:34:20;;;;;;;7.60;6.47;;;;;;;;;;4941767;28;20186;-41
2022/05/23 03:36:46;;;;;;;9.53;7.00;;;;;;;;;;4944424;28;20179;-42
2022/05/23 03:39:12;;;;;;;10.53;7.03;;;;;;;;;;4934541;28;20566;-42
2022/05/23 03:41:38;;;;;;;12.93;8.10;;;;;;;;;;4934149;28;20203;-42
2022/05/23 03:44:07;;;;;;;11.87;7.90;;;;;;;;;;4942335;28;20222;-41
2022/05/23 03:46:34;;;;;;;10.20;7.83;;;;;;;;;;4940398;28;20811;-41
2022/05/23 03:49:01;;;;;;;13.30;7.50;;;;;;;;;;4932883;28;20178;-41
2022/05/23 03:51:27;;;;;;;13.30;8.27;;;;;;;;;;4938728;28;20766;-42
2022/05/23 03:53:53;;;;;;;10.83;8.10;;;;;;;;;;4944155;28;20330;-41
2022/05/23 03:56:19;;;;;;;11.40;8.20;;;;;;;;;;4933816;28;20643;-42
2022/05/23 03:58:46;;;;;;;9.77;7.83;;;;;;;;;;4938303;28;20191;-42
2022/05/23 04:01:16;;;;;;;18.03;8.73;;;;;;;;;;4941854;28;20458;-41
2022/05/23 04:03:42;;;;;;;16.57;8.77;;;;;;;;;;4937874;28;20186;-42
2022/05/23 04:06:09;;;;;;;11.40;8.73;;;;;;;;;;4940195;28;20210;-42
2022/05/23 04:08:35;;;;;;;12.63;8.50;;;;;;;;;;4941161;28;20206;-42
2022/05/23 04:11:02;;;;;;;19.83;9.30;;;;;;;;;;4933270;28;20778;-42
2022/05/23 04:13:29;;;;;;;20.63;10.37;;;;;;;;;;4939291;28;20175;-42
2022/05/23 04:15:55;;;;;;;17.50;9.90;;;;;;;;;;4937159;28;20654;-42
2022/05/23 04:18:21;;;;;;;18.43;10.30;;;;;;;;;;4940523;28;20347;-42
2022/05/23 04:20:47;;;;;;;18.83;9.43;;;;;;;;;;4938008;28;20182;-40
2022/05/23 04:23:14;;;;;;;19.60;10.77;;;;;;;;;;4939325;28;20175;-42
2022/05/23 04:25:41;;;;;;;21.80;10.93;;;;;;;;;;4944751;28;20175;-41
2022/05/23 04:28:08;;;;;;;19.63;10.77;;;;;;;;;;4939792;28;20249;-42
2022/05/23 04:30:34;;;;;;;32.37;13.67;;;;;;;;;;4937048;28;20179;-41
2022/05/23 04:35:45;;;;;;;14.40;10.63;;;;;;;;;;4943789;28;20668;-42
2022/05/23 04:38:11;;;;;;;20.90;12.67;;;;;;;;;;4940162;28;20179;-41
2022/05/23 04:40:38;;;;;;;21.83;12.30;;;;;;;;;;4932596;28;20183;-42
2022/05/23 04:43:04;;;;;;;18.83;12.30;;;;;;;;;;4932879;28;20586;-42
2022/05/23 04:45:30;;;;;;;18.63;12.50;;;;;;;;;;4938810;28;20544;-42
2022/05/23 04:50:41;;;;;;;19.17;13.40;;;;;;;;;;4936868;28;21409;-41
2022/05/23 04:53:07;;;;;;;24.83;14.60;;;;;;;;;;4936317;28;20175;-42
2022/05/23 04:55:35;;;;;;;18.33;13.13;;;;;;;;;;4937827;28;20340;-42
2022/05/23 04:58:01;;;;;;;18.43;14.17;;;;;;;;;;4936056;28;20532;-41
2022/05/23 05:00:29;;;;;;;21.67;15.27;;;;;;;;;;4938369;28;20253;-42
2022/05/23 05:02:59;;;;;;;24.23;16.00;;;;;;;;;;4930797;28;21120;-42
2022/05/23 05:05:25;;;;;;;23.57;16.93;;;;;;;;;;4931579;28;20297;-42
2022/05/23 05:07:51;;;;;;;17.73;14.43;;;;;;;;;;4942571;28;20644;-42
2022/05/23 05:10:18;;;;;;;22.50;14.33;;;;;;;;;;4941080;28;20606;-42
2022/05/23 05:12:44;;;;;;;19.33;13.87;;;;;;;;;;4937439;28;20242;-42
2022/05/23 05:15:11;;;;;;;18.50;13.50;;;;;;;;;;4930476;28;20735;-42
2022/05/23 05:17:37;;;;;;;21.93;14.30;;;;;;;;;;4938370;28;20190;-42
2022/05/23 05:20:03;;;;;;;17.97;13.03;;;;;;;;;;4938295;28;21023;-42
2022/05/23 05:22:30;;;;;;;20.10;12.37;;;;;;;;;;4911750;28;20201;-41
2022/05/23 05:24:56;;;;;;;16.20;10.67;;;;;;;;;;4937766;28;20292;-42
2022/05/23 05:27:22;;;;;;;21.30;11.50;;;;;;;;;;4938563;28;20433;-42
2022/05/23 05:29:48;;;;;;;17.53;11.30;;;;;;;;;;4940967;28;20544;-42
2022/05/23 05:32:26;;;;;;;17.63;10.70;;;;;;;;;;4939758;28;20183;-41
2022/05/23 05:34:55;;;;;;;14.10;10.70;;;;;;;;;;4943216;28;20194;-42
2022/05/23 05:37:28;;;;;;;15.40;11.17;;;;;;;;;;4935342;28;20229;-41
2022/05/23 05:39:55;;;;;;;15.90;10.60;;;;;;;;;;4942577;28;20178;-43
2022/05/23 05:42:26;;;;;;;15.93;11.13;;;;;;;;;;4938439;28;20766;-42
2022/05/23 05:45:12;;;;;;;16.77;11.03;;;;;;;;;;4936216;28;20375;-42
2022/05/23 05:47:40;;;;;;;19.07;10.30;;;;;;;;;;4941571;28;20175;-42
2022/05/23 05:50:08;;;;;;;16.97;9.63;;;;;;;;;;4939594;28;20336;-42
2022/05/23 05:52:35;;;;;;;17.33;10.27;;;;;;;;;;4937925;28;20749;-42
2022/05/23 05:55:02;;;;;;;14.77;10.27;;;;;;;;;;4940391;28;20261;-42
2022/05/23 05:57:28;;;;;;;19.77;10.67;;;;;;;;;;4943061;28;20216;-41
2022/05/23 05:59:54;;;;;;;17.47;11.00;;;;;;;;;;4942259;28;20860;-42
2022/05/23 06:02:20;;;;;;;18.17;11.30;;;;;;;;;;4943124;28;20974;-42
2022/05/23 06:04:47;;;;;;;13.43;9.37;;;;;;;;;;4942920;28;20349;-42
2022/05/23 06:12:58;;;;;;;17.27;10.20;;;;;;;;;;4943126;28;20233;-42
2022/05/23 06:15:24;;;;;;;15.57;10.33;;;;;;;;;;4940610;28;20326;-41
2022/05/23 06:17:51;;;;;;;17.43;10.07;;;;;;;;;;4941803;28;20178;-42
2022/05/23 06:20:18;;;;;;;15.90;10.27;;;;;;;;;;4942607;28;20196;-42
2022/05/23 06:22:44;;;;;;;15.60;9.57;;;;;;;;;;4942761;28;20195;-42
2022/05/23 06:25:11;;;;;;;12.50;9.07;;;;;;;;;;4941475;28;20804;-43
2022/05/23 06:27:37;;;;;;;14.17;8.40;;;;;;;;;;4938891;28;20175;-43
2022/05/23 06:30:05;;;;;;;15.53;8.17;;;;;;;;;;4932441;28;20836;-42
2022/05/23 06:32:31;;;;;;;12.33;8.47;;;;;;;;;;4932183;28;20179;-43
2022/05/23 06:34:57;;;;;;;10.70;7.87;;;;;;;;;;4938611;28;20548;-43
2022/05/23 06:37:23;;;;;;;15.13;8.50;;;;;;;;;;4926013;28;20281;-43
2022/05/23 06:39:49;;;;;;;15.77;8.37;;;;;;;;;;4939420;28;20179;-43
2022/05/23 06:42:15;;;;;;;14.37;8.23;;;;;;;;;;4935609;28;20749;-42
2022/05/23 06:44:42;;;;;;;15.07;8.50;;;;;;;;;;4943698;28;20235;-43
2022/05/23 06:47:08;;;;;;;15.30;7.37;;;;;;;;;;4940586;28;20171;-43
2022/05/23 06:49:34;;;;;;;15.07;7.80;;;;;;;;;;4941130;28;20174;-43
2022/05/23 06:52:01;;;;;;;15.13;7.57;;;;;;;;;;4943498;28;20186;-42
2022/05/23 06:54:27;;;;;;;15.10;7.80;;;;;;;;;;4941150;28;20597;-43
2022/05/23 06:56:53;;;;;;;12.70;7.57;;;;;;;;;;4934089;28;20620;-43
2022/05/23 06:59:20;;;;;;;11.40;7.33;;;;;;;;;;4941902;28;20912;-43
2022/05/23 07:01:47;;;;;;;14.50;7.33;;;;;;;;;;4943877;28;21092;-43
2022/05/23 07:04:13;;;;;;;12.43;7.23;;;;;;;;;;4942392;28;20277;-42
2022/05/23 07:12:19;;;;;;;13.47;7.97;;;;;;;;;;4942434;28;20254;-43
2022/05/23 07:12:26;;;;;;;12.33;6.60;;;;;;;;;;4938646;28;20716;-43
2022/05/23 07:14:54;;;;;;;16.00;7.77;;;;;;;;;;4941921;28;20667;-42
2022/05/23 07:17:21;;;;;;;15.33;8.10;;;;;;;;;;4939321;28;20295;-42
2022/05/23 07:19:48;;;;;;;9.77;7.77;;;;;;;;;;4940062;28;21025;-43
2022/05/23 07:22:14;;;;;;;11.50;7.47;;;;;;;;;;4941517;28;20191;-44
2022/05/23 07:24:41;;;;;;;11.93;8.07;;;;;;;;;;4937895;28;20173;-43
2022/05/23 07:27:07;;;;;;;16.63;8.50;;;;;;;;;;4941339;28;20812;-44
2022/05/23 07:29:33;;;;;;;14.20;8.43;;;;;;;;;;4942427;28;20473;-43
2022/05/23 07:31:59;;;;;;;16.13;8.90;;;;;;;;;;4938571;28;20246;-43
2022/05/23 07:34:26;;;;;;;17.20;9.23;;;;;;;;;;4939023;28;20917;-43
2022/05/23 07:36:52;;;;;;;10.27;7.67;;;;;;;;;;4940762;28;20434;-43
2022/05/23 07:39:18;;;;;;;16.47;9.00;;;;;;;;;;4938561;28;20609;-43
2022/05/23 07:41:44;;;;;;;12.57;7.97;;;;;;;;;;4939368;28;20238;-43
2022/05/23 07:44:11;;;;;;;18.40;9.33;;;;;;;;;;4938012;28;20415;-44
2022/05/23 07:46:37;;;;;;;15.40;9.37;;;;;;;;;;4943063;28;20541;-44
2022/05/23 07:49:04;;;;;;;13.33;8.60;;;;;;;;;;4939712;28;20878;-43
2022/05/23 07:51:32;;;;;;;15.33;9.43;;;;;;;;;;4939237;28;20701;-42
2022/05/23 08:02:16;;;;;;;15.77;10.57;;;;;;;;;;4943744;28;20209;-45
2022/05/23 08:04:42;;;;;;;19.60;10.67;;;;;;;;;;4943301;28;20178;-42
2022/05/23 08:07:09;;;;;;;14.37;9.37;;;;;;;;;;4940130;28;20183;-43
2022/05/23 08:09:36;;;;;;;17.53;10.10;;;;;;;;;;4940102;28;20175;-43
2022/05/23 08:12:04;;;;;;;12.67;8.87;;;;;;;;;;4939035;28;20640;-43
2022/05/23 08:14:30;;;;;;;16.70;9.20;;;;;;;;;;4937340;28;20195;-43
2022/05/23 08:16:56;;;;;;;16.00;9.70;;;;;;;;;;4942530;28;21031;-43
2022/05/23 08:19:22;;;;;;;15.30;9.37;;;;;;;;;;4944274;28;20182;-43
2022/05/23 08:21:51;;;;;;;14.30;8.57;;;;;;;;;;4939425;28;20214;-43
2022/05/23 08:24:17;;;;;;;12.40;8.97;;;;;;;;;;4938714;28;20859;-44
2022/05/23 08:26:43;;;;;;;15.07;9.87;;;;;;;;;;4944908;28;20636;-43
2022/05/23 08:29:09;;;;;;;17.60;10.93;;;;;;;;;;4944266;28;20182;-43
2022/05/23 08:31:36;;;;;;;14.63;9.63;;;;;;;;;;4938727;28;20183;-43
2022/05/23 08:34:03;;;;;;;16.20;8.80;;;;;;;;;;4941761;28;20193;-43
2022/05/23 08:36:29;;;;;;;15.53;9.53;;;;;;;;;;4942754;28;20210;-43
2022/05/23 08:38:55;;;;;;;13.83;8.83;;;;;;;;;;4938736;28;20610;-43
2022/05/23 08:41:38;;;;;;;13.50;8.97;;;;;;;;;;4941334;28;20367;-43
2022/05/23 08:44:07;;;;;;;11.97;8.77;;;;;;;;;;4941289;28;20194;-43
2022/05/23 08:46:37;;;;;;;13.20;8.60;;;;;;;;;;4941414;28;20182;-43
2022/05/23 08:49:10;;;;;;;11.63;7.47;;;;;;;;;;4937303;28;20273;-43
2022/05/23 08:51:44;;;;;;;15.33;7.23;;;;;;;;;;4941574;28;20186;-43
2022/05/23 08:54:28;;;;;;;12.73;7.00;;;;;;;;;;4943130;28;20280;-43
2022/05/23 08:56:55;;;;;;;14.70;6.80;;;;;;;;;;4937802;28;20185;-44
2022/05/23 08:59:25;;;;;;;12.90;7.47;;;;;;;;;;4939627;28;20427;-43
2022/05/23 09:01:57;;;;;;;13.80;7.10;;;;;;;;;;4943206;28;20687;-43
2022/05/23 09:04:35;;;;;;;10.80;6.10;;;;;;;;;;4941856;28;20250;-43
2022/05/23 09:07:03;;;;;;;7.13;5.60;;;;;;;;;;4913186;28;20404;-43
2022/05/23 09:09:32;;;;;;;10.27;5.47;;;;;;;;;;4933413;28;20289;-43
2022/05/23 09:12:03;;;;;;;9.67;6.10;;;;;;;;;;4940283;28;20496;-43
2022/05/23 09:14:30;;;;;;;13.23;6.37;;;;;;;;;;4938532;28;21072;-43
2022/05/23 09:16:58;;;;;;;10.87;5.90;;;;;;;;;;4941797;28;20197;-43
2022/05/23 09:19:35;;;;;;;10.13;5.00;;;;;;;;;;4942341;28;20633;-43
2022/05/23 09:22:15;;;;;;;9.50;5.00;;;;;;;;;;4938151;28;20895;-43
2022/05/23 09:24:45;;;;;;;15.00;4.93;;;;;;;;;;4939782;28;20193;-43
2022/05/23 09:27:20;;;;;;;11.23;5.10;;;;;;;;;;4940002;28;20358;-43
2022/05/23 09:29:50;;;;;;;9.10;5.77;;;;;;;;;;4939624;28;21008;-43
2022/05/23 09:32:17;;;;;;;13.13;5.40;;;;;;;;;;4939444;28;20190;-43
2022/05/23 09:35:22;;;;;;;8.87;5.50;;;;;;;;;;4943652;28;20191;-43
2022/05/23 09:38:04;;;;;;;9.57;4.33;;;;;;;;;;4911805;28;20195;-43
2022/05/23 09:40:31;;;;;;;9.87;5.20;;;;;;;;;;4911426;28;20558;-44
2022/05/23 09:49:02;;;;;;;8.83;4.33;;;;;;;;;;4941478;28;20254;-43
2022/05/23 09:51:28;;;;;;;11.20;4.20;;;;;;;;;;4936957;28;20175;-44
2022/05/23 09:53:55;;;;;;;9.23;4.80;;;;;;;;;;4935039;28;20453;-43
2022/05/23 09:56:23;;;;;;;7.70;4.87;;;;;;;;;;4939870;28;20178;-43
2022/05/23 09:58:50;;;;;;;8.80;3.97;;;;;;;;;;4938349;28;20178;-43
2022/05/23 10:01:25;;;;;;;8.00;4.03;;;;;;;;;;4934208;28;20683;-43
2022/05/23 10:03:51;;;;;;;9.83;4.67;;;;;;;;;;4938462;28;20713;-43
2022/05/23 10:06:17;;;;;;;6.80;4.30;;;;;;;;;;4938546;28;20175;-43
2022/05/23 10:08:48;;;;;;;7.17;4.40;;;;;;;;;;4937138;28;20187;-44
2022/05/23 10:11:20;;;;;;;10.17;5.00;;;;;;;;;;4941179;28;20175;-43
2022/05/23 10:13:50;;;;;;;6.60;4.17;;;;;;;;;;4942417;28;20625;-44
2022/05/23 10:16:18;;;;;;;8.20;4.00;;;;;;;;;;4938269;28;20281;-43
2022/05/23 10:18:50;;;;;;;7.43;4.07;;;;;;;;;;4941156;28;20175;-43
2022/05/23 10:21:36;;;;;;;7.90;4.27;;;;;;;;;;4944762;28;20285;-42
2022/05/23 10:24:04;;;;;;;8.17;4.60;;;;;;;;;;4940697;28;20730;-44
2022/05/23 10:26:33;;;;;;;12.03;4.57;;;;;;;;;;4943842;28;20249;-44
2022/05/23 10:29:09;;;;;;;9.87;5.17;;;;;;;;;;4943078;28;20245;-44
2022/05/23 10:31:49;;;;;;;10.57;4.80;;;;;;;;;;4940584;28;20182;-44
2022/05/23 10:34:34;;;;;;;13.80;4.60;;;;;;;;;;4941015;28;20185;-43
2022/05/23 10:37:03;;;;;;;6.47;4.37;;;;;;;;;;4943581;28;20682;-44
2022/05/23 10:42:26;;;;;;;9.53;4.60;;;;;;;;;;4943582;28;20218;-44
2022/05/23 10:44:57;;;;;;;7.60;3.80;;;;;;;;;;4955358;28;20672;-43
2022/05/23 10:47:41;;;;;;;8.33;4.30;;;;;;;;;;4944223;28;21040;-44
2022/05/23 10:50:15;;;;;;;7.87;4.30;;;;;;;;;;4942552;28;20540;-43
2022/05/23 10:52:46;;;;;;;6.47;4.30;;;;;;;;;;4943190;28;20186;-44
2022/05/23 10:55:17;;;;;;;8.30;4.30;;;;;;;;;;4942247;28;20175;-44
2022/05/23 10:57:43;;;;;;;7.27;4.10;;;;;;;;;;4943757;28;20590;-44
2022/05/23 11:00:14;;;;;;;11.73;4.17;;;;;;;;;;4941044;28;20707;-44
2022/05/23 11:02:40;;;;;;;9.23;4.33;;;;;;;;;;4938565;28;20284;-43
2022/05/23 11:05:06;;;;;;;10.27;4.90;;;;;;;;;;4942216;28;20167;-44
2022/05/23 11:07:45;;;;;;;9.60;4.17;;;;;;;;;;4945324;28;20698;-44
2022/05/23 11:10:30;;;;;;;5.73;3.63;;;;;;;;;;4931009;28;20178;-44
2022/05/23 11:13:14;;;;;;;8.53;4.37;;;;;;;;;;4926107;28;20179;-43
2022/05/23 11:16:01;;;;;;;7.07;4.07;;;;;;;;;;4935664;28;20234;-43
2022/05/23 11:18:33;;;;;;;8.53;3.80;;;;;;;;;;4912355;28;20191;-43
2022/05/23 11:21:02;;;;;;;7.53;4.13;;;;;;;;;;4923419;28;21211;-43
2022/05/23 11:23:33;;;;;;;9.53;4.40;;;;;;;;;;4939065;28;20656;-43
2022/05/23 11:26:02;;;;;;;12.87;4.90;;;;;;;;;;4944710;28;20221;-43
2022/05/23 11:34:32;;;;;;;11.03;4.80;;;;;;;;;;4943414;28;20297;-44
2022/05/23 11:37:42;;;;;;;6.93;4.37;;;;;;;;;;4923348;28;20259;-44
2022/05/23 11:39:53;;;;;;;10.27;4.53;;;;;;;;;;4928071;28;20171;-44
2022/05/23 11:42:22;;;;;;;8.83;4.13;;;;;;;;;;4926543;28;20431;-44
2022/05/23 11:44:49;;;;;;;14.00;5.10;;;;;;;;;;4926668;28;20229;-44
2022/05/23 11:47:21;;;;;;;7.77;4.37;;;;;;;;;;4929084;28;20347;-44
2022/05/23 11:50:00;;;;;;;12.73;4.87;;;;;;;;;;4928983;28;20183;-44
2022/05/23 11:52:32;;;;;;;7.53;4.13;;;;;;;;;;4929925;28;20187;-44
2022/05/23 11:54:58;;;;;;;9.77;4.63;;;;;;;;;;4939657;28;20792;-44
2022/05/23 11:57:35;;;;;;;10.03;4.37;;;;;;;;;;4931059;28;20175;-44
2022/05/23 12:00:06;;;;;;;6.53;4.73;;;;;;;;;;4936264;28;20299;-44
2022/05/23 12:02:37;;;;;;;6.47;4.10;;;;;;;;;;4940246;28;20203;-44
2022/05/23 12:05:03;;;;;;;8.37;3.80;;;;;;;;;;4944196;28;20727;-44
2022/05/23 12:07:31;;;;;;;5.90;4.00;;;;;;;;;;4927598;28;21081;-44
2022/05/23 12:10:16;;;;;;;10.77;4.63;;;;;;;;;;4932048;28;20593;-43
2022/05/23 12:12:47;;;;;;;6.73;4.03;;;;;;;;;;4940063;28;20213;-44
2022/05/23 12:15:35;;;;;;;8.27;4.33;;;;;;;;;;4940915;28;20346;-44
2022/05/23 12:18:02;;;;;;;8.93;4.57;;;;;;;;;;4938644;28;20577;-44
2022/05/23 12:20:31;;;;;;;11.13;4.70;;;;;;;;;;4938240;28;20490;-44
2022/05/23 12:23:17;;;;;;;6.20;4.47;;;;;;;;;;4940716;28;20235;-44
2022/05/23 12:25:43;;;;;;;12.67;5.10;;;;;;;;;;4938244;28;20710;-44
2022/05/23 12:28:14;;;;;;;8.23;4.70;;;;;;;;;;4938483;28;20512;-43
2022/05/23 12:30:44;;;;;;;7.13;4.40;;;;;;;;;;4941485;28;20623;-44
2022/05/23 12:33:20;;;;;;;6.77;4.43;;;;;;;;;;4937128;28;20237;-44
2022/05/23 12:35:52;;;;;;;7.77;4.67;;;;;;;;;;4943735;28;20213;-44
2022/05/23 12:38:19;;;;;;;18.70;4.87;;;;;;;;;;4935889;28;20179;-44
2022/05/23 12:40:49;;;;;;;7.63;4.30;;;;;;;;;;4916814;28;20179;-44
2022/05/23 12:43:35;;;;;;;7.67;4.33;;;;;;;;;;4937703;28;20321;-44
2022/05/23 12:46:01;;;;;;;10.47;4.70;;;;;;;;;;4941437;28;20316;-44
2022/05/23 12:48:36;;;;;;;9.50;5.10;;;;;;;;;;4939275;28;20616;-44
2022/05/23 12:51:12;;;;;;;10.50;5.23;;;;;;;;;;4939218;28;20495;-43
2022/05/23 12:53:49;;;;;;;10.70;5.33;;;;;;;;;;4939395;28;20272;-44
2022/05/23 12:56:16;;;;;;;13.13;5.27;;;;;;;;;;4939757;28;20184;-44
2022/05/23 12:59:01;;;;;;;9.27;4.90;;;;;;;;;;4941031;28;20381;-44
2022/05/23 13:01:28;;;;;;;10.70;5.23;;;;;;;;;;4934873;28;20188;-43
2022/05/23 13:04:01;;;;;;;8.87;5.23;;;;;;;;;;4937320;28;20744;-44
2022/05/23 13:06:31;;;;;;;9.77;4.73;;;;;;;;;;4940719;28;20244;-43
2022/05/23 13:09:09;;;;;;;8.97;5.17;;;;;;;;;;4938059;28;20170;-43
2022/05/23 13:11:41;;;;;;;12.60;5.27;;;;;;;;;;4937155;28;20707;-43
2022/05/23 13:14:07;;;;;;;7.37;4.93;;;;;;;;;;4941859;28;21425;-44
2022/05/23 13:16:40;;;;;;;9.67;4.90;;;;;;;;;;4939065;28;20619;-44
2022/05/23 13:22:10;;;;;;;12.23;4.50;;;;;;;;;;4939761;28;20795;-43
2022/05/23 13:25:03;;;;;;;9.03;4.37;;;;;;;;;;4941788;28;20182;-43
2022/05/23 13:27:31;;;;;;;7.37;4.80;;;;;;;;;;4930183;28;20627;-42
2022/05/23 13:29:57;;;;;;;12.17;4.87;;;;;;;;;;4940636;28;20194;-43
2022/05/23 13:32:23;;;;;;;10.17;5.13;;;;;;;;;;4937567;28;20242;-43
2022/05/23 13:34:50;;;;;;;9.07;4.87;;;;;;;;;;4935383;28;20826;-43
2022/05/23 13:37:30;;;;;;;9.87;4.70;;;;;;;;;;4938831;28;20612;-44
2022/05/23 13:39:57;;;;;;;9.30;4.87;;;;;;;;;;4936199;28;21101;-43
2022/05/23 13:42:25;;;;;;;9.10;4.80;;;;;;;;;;4932853;28;20190;-42
2022/05/23 13:44:51;;;;;;;7.40;4.70;;;;;;;;;;4938363;28;20607;-44
2022/05/23 13:47:36;;;;;;;5.80;3.80;;;;;;;;;;4941028;28;20468;-44
2022/05/23 13:50:11;;;;;;;8.63;4.40;;;;;;;;;;4935120;28;20520;-43
2022/05/23 13:52:45;;;;;;;6.60;4.20;;;;;;;;;;4937100;28;20195;-43
2022/05/23 13:55:22;;;;;;;11.03;4.23;;;;;;;;;;4940774;28;20888;-43
2022/05/23 13:57:53;;;;;;;8.73;3.97;;;;;;;;;;4938420;28;21131;-44
2022/05/23 14:00:21;;;;;;;7.93;3.93;;;;;;;;;;4938130;28;20652;-43
2022/05/23 14:02:54;;;;;;;9.37;4.40;;;;;;;;;;4937775;28;20340;-42
2022/05/23 14:05:20;;;;;;;6.47;3.83;;;;;;;;;;4937457;28;20550;-44
2022/05/23 14:07:47;;;;;;;8.47;4.67;;;;;;;;;;4933228;28;21006;-43
2022/05/23 14:10:20;;;;;;;6.63;4.10;;;;;;;;;;4935758;28;20226;-43
2022/05/23 14:12:47;;;;;;;8.37;4.17;;;;;;;;;;4938151;28;20923;-44
2022/05/23 14:15:14;;;;;;;6.03;3.63;;;;;;;;;;4934369;28;20179;-44
2022/05/23 14:17:43;;;;;;;7.20;4.00;;;;;;;;;;4936689;28;20183;-43
2022/05/23 14:20:28;;;;;;;11.57;4.53;;;;;;;;;;4932983;28;20484;-44
2022/05/23 14:23:00;;;;;;;10.13;4.20;;;;;;;;;;4939372;28;20202;-43
2022/05/23 14:25:30;;;;;;;10.43;4.43;;;;;;;;;;4939827;28;20221;-44
2022/05/23 14:28:04;;;;;;;9.50;4.37;;;;;;;;;;4941143;28;20175;-44
2022/05/23 14:30:35;;;;;;;8.00;4.33;;;;;;;;;;4933053;28;20185;-42
2022/05/23 14:33:07;;;;;;;7.70;3.90;;;;;;;;;;4939176;28;20175;-43
2022/05/23 14:35:37;;;;;;;11.30;4.10;;;;;;;;;;4935851;28;20679;-43
2022/05/23 14:38:04;;;;;;;8.53;4.17;;;;;;;;;;4939359;28;20250;-43
2022/05/23 14:40:40;;;;;;;7.27;3.93;;;;;;;;;;4942000;28;20183;-42
2022/05/23 14:43:11;;;;;;;7.73;4.20;;;;;;;;;;4938007;28;20211;-43
2022/05/23 14:45:53;;;;;;;7.83;4.40;;;;;;;;;;4940611;28;20182;-43
2022/05/23 14:48:25;;;;;;;8.93;4.17;;;;;;;;;;4935653;28;20170;-42
2022/05/23 14:50:52;;;;;;;7.07;4.23;;;;;;;;;;4937509;28;20375;-43
2022/05/23 14:56:11;;;;;;;12.63;5.10;;;;;;;;;;4940991;28;20215;-42
2022/05/23 15:01:25;;;;;;;7.73;4.97;;;;;;;;;;4943652;28;20269;-43
2022/05/23 15:03:54;;;;;;;8.67;4.77;;;;;;;;;;4935646;28;20179;-43
2022/05/23 15:06:20;;;;;;;8.67;5.27;;;;;;;;;;4937775;28;20185;-43
2022/05/23 15:08:47;;;;;;;8.97;4.97;;;;;;;;;;4935306;28;20293;-43
2022/05/23 15:11:22;;;;;;;8.23;4.70;;;;;;;;;;4936171;28;20540;-44
2022/05/23 15:13:48;;;;;;;13.20;4.80;;;;;;;;;;4942942;28;20614;-44
2022/05/23 15:16:24;;;;;;;7.97;4.33;;;;;;;;;;4939966;28;20193;-43
2022/05/23 15:18:50;;;;;;;8.80;4.57;;;;;;;;;;4936664;28;20205;-42
2022/05/23 15:21:16;;;;;;;8.90;5.03;;;;;;;;;;4935385;28;20678;-42
2022/05/23 15:23:43;;;;;;;9.53;4.73;;;;;;;;;;4941444;28;20640;-42
2022/05/23 15:26:09;;;;;;;9.37;4.53;;;;;;;;;;4935413;28;21168;-42
2022/05/23 15:28:37;;;;;;;8.90;4.17;;;;;;;;;;4937738;28;20239;-42
2022/05/23 15:31:03;;;;;;;7.87;4.67;;;;;;;;;;4942661;28;20179;-42
2022/05/23 15:33:29;;;;;;;10.57;4.53;;;;;;;;;;4931867;28;20182;-42
2022/05/23 15:35:55;;;;;;;10.40;4.20;;;;;;;;;;4942543;28;20179;-43
2022/05/23 15:38:21;;;;;;;8.00;4.03;;;;;;;;;;4940580;28;20472;-42
2022/05/23 15:40:47;;;;;;;7.00;4.20;;;;;;;;;;4936788;28;20190;-42
2022/05/23 15:43:17;;;;;;;100.00;12.93;;;;;;;;;;4933873;28;20218;-41
2022/05/23 15:45:46;;;;;;;9.37;4.33;;;;;;;;;;4941455;28;20183;-42